Time;durP1;ratioP1;P1;durP2;ratioP2;P2;SDS_P1;SDS_P2;PMS_P1;PMS_P2;Temp;Humidity;BMP_temperature;BMP_pressure;BME280_temperature;BME280_humidity;BME280_pressure;Samples;Min_cycle;Max_cycle;Signal;HPM_P1;HPM_P2
2022/03/29 00:00:16;;;;;;;5.53;1.75;;;22.20;64.60;;;;;;5004348;28;20038;-74
2022/03/29 00:02:44;;;;;;;6.30;1.15;;;22.20;64.70;;;;;;5001080;28;20069;-74
2022/03/29 00:05:10;;;;;;;2.10;0.65;;;22.20;64.70;;;;;;5003383;28;20119;-73
2022/03/29 00:07:37;;;;;;;2.42;0.88;;;22.20;64.70;;;;;;5002997;28;20080;-75
2022/03/29 00:10:07;;;;;;;4.90;0.80;;;22.20;64.70;;;;;;5003649;28;20034;-73
2022/03/29 00:12:34;;;;;;;5.97;1.13;;;22.20;64.60;;;;;;5004948;28;20567;-73
2022/03/29 00:15:05;;;;;;;1.75;0.85;;;22.20;64.70;;;;;;5006823;28;20037;-73
2022/03/29 00:20:59;;;;;;;2.38;0.88;;;22.10;65.00;;;;;;5000328;28;20048;-74
2022/03/29 00:23:25;;;;;;;2.65;0.93;;;22.10;65.00;;;;;;5008284;28;20494;-73
2022/03/29 00:25:52;;;;;;;3.60;0.50;;;22.10;65.10;;;;;;5004991;28;20087;-73
2022/03/29 00:28:18;;;;;;;2.50;1.00;;;22.10;65.30;;;;;;5009618;28;20083;-74
2022/03/29 00:30:45;;;;;;;9.38;1.17;;;22.10;65.30;;;;;;5008890;28;20495;-73
2022/03/29 00:33:11;;;;;;;5.10;1.25;;;22.10;65.40;;;;;;5006890;28;20509;-74
2022/03/29 00:35:38;;;;;;;4.63;1.00;;;22.00;65.50;;;;;;5009977;28;20469;-74
2022/03/29 00:38:05;;;;;;;2.75;0.70;;;22.00;65.60;;;;;;5007895;28;20029;-73
2022/03/29 00:40:31;;;;;;;5.07;0.80;;;22.00;65.60;;;;;;5010231;28;20508;-73
2022/03/29 00:42:58;;;;;;;2.75;0.88;;;22.00;65.60;;;;;;5005711;28;20026;-73
2022/03/29 00:45:24;;;;;;;2.03;0.73;;;22.00;65.60;;;;;;5008527;28;20505;-73
2022/03/29 00:47:51;;;;;;;2.42;0.73;;;22.00;65.90;;;;;;5009666;28;20025;-73
2022/03/29 00:50:18;;;;;;;3.75;0.52;;;22.00;65.70;;;;;;5007201;28;20098;-73
2022/03/29 00:52:44;;;;;;;4.22;0.82;;;22.00;65.70;;;;;;5008687;28;20041;-73
2022/03/29 00:55:15;;;;;;;4.63;1.00;;;22.00;65.60;;;;;;5005744;28;20045;-73
2022/03/29 00:57:45;;;;;;;2.70;0.70;;;22.00;65.50;;;;;;5007557;28;20028;-74
2022/03/29 01:00:12;;;;;;;5.80;1.08;;;21.90;65.60;;;;;;5004640;28;20039;-73
2022/03/29 01:02:39;;;;;;;4.10;0.80;;;21.90;65.70;;;;;;5007590;28;20101;-74
2022/03/29 01:05:05;;;;;;;2.88;0.73;;;21.90;65.60;;;;;;5007245;28;20524;-73
2022/03/29 01:07:32;;;;;;;4.05;1.65;;;21.90;65.70;;;;;;5007011;28;20033;-74
2022/03/29 01:10:01;;;;;;;6.28;0.88;;;21.90;65.70;;;;;;5008061;28;20026;-73
2022/03/29 01:12:31;;;;;;;2.70;0.70;;;21.90;65.60;;;;;;5004893;28;20033;-72
2022/03/29 01:14:57;;;;;;;6.22;1.02;;;21.90;65.70;;;;;;5009257;28;20101;-73
2022/03/29 01:17:40;;;;;;;1.83;0.70;;;21.90;65.70;;;;;;5006962;28;20037;-73
2022/03/29 01:20:22;;;;;;;4.47;0.93;;;21.90;65.90;;;;;;5006279;28;20045;-73
2022/03/29 01:22:50;;;;;;;2.25;0.52;;;21.90;65.90;;;;;;5008052;28;20040;-73
2022/03/29 01:25:19;;;;;;;13.25;1.38;;;21.80;65.90;;;;;;5004687;28;20092;-72
2022/03/29 01:27:48;;;;;;;3.10;0.90;;;21.80;66.10;;;;;;5006855;28;20460;-73
2022/03/29 01:30:15;;;;;;;34.65;1.65;;;21.80;66.20;;;;;;5007724;28;20100;-73
2022/03/29 01:32:48;;;;;;;5.57;2.85;;;21.80;66.30;;;;;;5007673;28;20026;-73
2022/03/29 01:35:17;;;;;;;2.75;0.90;;;21.80;66.20;;;;;;5006768;28;20018;-73
2022/03/29 01:37:44;;;;;;;2.78;0.77;;;21.80;66.30;;;;;;5003746;28;20061;-73
2022/03/29 01:40:16;;;;;;;4.45;0.90;;;21.80;66.40;;;;;;5006600;28;20022;-73
2022/03/29 01:42:56;;;;;;;1.95;0.80;;;21.80;66.40;;;;;;5002011;28;20023;-73
2022/03/29 01:45:25;;;;;;;2.08;0.90;;;21.80;66.50;;;;;;5007370;28;20081;-73
2022/03/29 01:47:51;;;;;;;2.03;0.73;;;21.80;66.50;;;;;;5006498;28;20037;-73
2022/03/29 01:50:18;;;;;;;4.90;0.80;;;21.80;66.50;;;;;;5007519;28;20034;-73
2022/03/29 01:52:47;;;;;;;3.88;0.85;;;21.80;66.70;;;;;;5006533;28;20042;-73
2022/03/29 01:55:16;;;;;;;3.15;0.70;;;21.80;66.80;;;;;;5004546;28;20517;-72
2022/03/29 01:57:43;;;;;;;4.13;1.10;;;21.80;66.90;;;;;;5007346;28;20033;-72
2022/03/29 02:02:56;;;;;;;3.67;1.30;;;21.90;67.10;;;;;;5008080;28;20032;-72
2022/03/29 02:05:24;;;;;;;5.00;0.95;;;21.90;67.10;;;;;;5005357;28;20014;-72
2022/03/29 02:07:51;;;;;;;1.45;0.60;;;21.90;67.10;;;;;;5006251;28;20432;-72
2022/03/29 02:10:18;;;;;;;2.97;0.75;;;21.90;67.00;;;;;;5006435;28;20029;-72
2022/03/29 02:12:46;;;;;;;1.60;0.70;;;21.90;67.00;;;;;;5006805;28;20080;-72
2022/03/29 02:15:13;;;;;;;1.98;0.80;;;21.90;67.00;;;;;;5006297;28;20037;-72
2022/03/29 02:17:41;;;;;;;2.63;1.02;;;21.90;67.00;;;;;;5005511;28;20496;-72
2022/03/29 02:20:08;;;;;;;2.30;0.52;;;21.90;66.90;;;;;;5005911;28;20065;-72
2022/03/29 02:22:35;;;;;;;5.25;1.10;;;21.90;66.80;;;;;;5005456;28;20079;-72
2022/03/29 02:25:02;;;;;;;2.85;0.90;;;21.90;66.80;;;;;;5006731;28;20045;-72
2022/03/29 02:27:28;;;;;;;2.33;0.65;;;21.90;66.70;;;;;;5007181;28;20014;-72
2022/03/29 02:29:55;;;;;;;3.60;0.80;;;21.80;66.40;;;;;;5007620;28;20018;-72
2022/03/29 02:32:21;;;;;;;3.10;0.98;;;21.80;66.50;;;;;;5006055;28;20481;-72
2022/03/29 02:34:48;;;;;;;1.67;0.52;;;21.80;66.50;;;;;;5005249;28;20385;-72
2022/03/29 02:37:15;;;;;;;1.67;0.60;;;21.80;66.80;;;;;;5008543;28;20080;-72
2022/03/29 02:39:42;;;;;;;1.95;0.43;;;21.80;66.80;;;;;;5006141;28;20026;-72
2022/03/29 02:42:09;;;;;;;3.40;0.70;;;21.80;66.70;;;;;;5006544;28;20018;-73
2022/03/29 02:44:35;;;;;;;2.25;1.00;;;21.80;66.80;;;;;;5007686;28;20033;-72
2022/03/29 02:47:02;;;;;;;5.10;0.77;;;21.80;66.80;;;;;;5004932;28;20048;-72
2022/03/29 02:49:29;;;;;;;2.90;0.60;;;21.80;66.70;;;;;;5005270;28;20076;-72
2022/03/29 02:51:55;;;;;;;5.25;0.90;;;21.90;67.60;;;;;;5005073;28;20538;-72
2022/03/29 02:54:22;;;;;;;1.90;0.93;;;21.80;67.10;;;;;;5007581;28;20493;-72
2022/03/29 02:56:48;;;;;;;4.40;1.90;;;21.80;67.30;;;;;;5004501;28;20097;-73
2022/03/29 02:59:15;;;;;;;5.63;1.42;;;21.80;67.20;;;;;;5006592;28;20451;-73
2022/03/29 03:01:42;;;;;;;3.40;0.65;;;21.80;67.30;;;;;;5022158;28;20453;-74
2022/03/29 03:04:08;;;;;;;4.25;1.00;;;21.80;67.40;;;;;;5003874;28;20022;-73
2022/03/29 03:06:35;;;;;;;1.67;0.52;;;21.70;67.50;;;;;;5007363;28;20129;-73
2022/03/29 03:09:02;;;;;;;5.45;0.95;;;21.70;67.50;;;;;;5003400;28;20504;-73
2022/03/29 03:11:28;;;;;;;2.17;0.70;;;21.70;67.50;;;;;;5007275;28;20065;-73
2022/03/29 03:13:55;;;;;;;1.75;0.73;;;21.70;67.50;;;;;;5004841;28;20033;-73
2022/03/29 03:16:21;;;;;;;1.88;0.60;;;21.70;67.60;;;;;;5004963;28;20025;-73
2022/03/29 03:18:48;;;;;;;3.00;0.70;;;21.70;67.50;;;;;;5005324;28;20029;-74
2022/03/29 03:21:14;;;;;;;4.03;0.70;;;21.70;67.70;;;;;;5005670;28;20469;-73
2022/03/29 03:23:41;;;;;;;3.67;1.00;;;21.70;67.70;;;;;;5004569;28;20030;-74
2022/03/29 03:26:08;;;;;;;7.00;1.08;;;21.70;67.80;;;;;;5006318;28;20119;-73
2022/03/29 03:28:34;;;;;;;2.65;0.75;;;21.80;67.90;;;;;;5006776;28;20033;-73
2022/03/29 03:31:01;;;;;;;1.05;0.50;;;21.80;68.00;;;;;;5002539;28;20394;-73
2022/03/29 03:33:28;;;;;;;4.47;0.70;;;21.80;68.10;;;;;;5004519;28;20493;-72
2022/03/29 03:35:54;;;;;;;3.58;0.80;;;21.80;68.30;;;;;;5005393;28;20508;-72
2022/03/29 03:38:22;;;;;;;5.00;1.08;;;21.80;68.50;;;;;;5002663;28;20022;-73
2022/03/29 03:40:48;;;;;;;6.38;1.13;;;21.80;68.30;;;;;;5006512;28;20061;-73
2022/03/29 03:43:15;;;;;;;8.80;0.95;;;21.80;68.20;;;;;;5003873;28;20693;-72
2022/03/29 03:45:41;;;;;;;4.97;1.25;;;21.80;68.10;;;;;;5003878;28;20122;-72
2022/03/29 03:48:08;;;;;;;2.05;0.68;;;21.80;68.00;;;;;;5004672;28;20504;-72
2022/03/29 03:50:34;;;;;;;1.77;0.60;;;21.80;67.90;;;;;;5004306;28;20026;-73
2022/03/29 03:53:01;;;;;;;1.92;0.65;;;21.80;67.70;;;;;;5003469;28;20017;-72
2022/03/29 03:55:28;;;;;;;2.50;0.80;;;21.80;67.60;;;;;;5003862;28;20065;-72
2022/03/29 03:57:54;;;;;;;3.88;1.25;;;21.80;67.60;;;;;;5003286;28;20045;-72
2022/03/29 04:00:21;;;;;;;4.25;1.88;;;21.80;67.50;;;;;;5003067;28;20064;-72
2022/03/29 04:02:51;;;;;;;1.92;0.73;;;21.70;67.50;;;;;;5005518;28;20017;-72
2022/03/29 04:05:18;;;;;;;2.97;0.98;;;21.70;67.50;;;;;;5003740;28;20377;-74
2022/03/29 04:07:44;;;;;;;16.05;1.52;;;21.80;67.90;;;;;;5004595;28;20484;-72
2022/03/29 04:10:11;;;;;;;7.53;1.40;;;21.80;68.50;;;;;;5003528;28;20033;-72
2022/03/29 04:12:37;;;;;;;10.77;6.10;;;21.70;68.30;;;;;;5002342;28;20030;-69
2022/03/29 04:15:05;;;;;;;8.90;6.22;;;21.70;68.20;;;;;;5002381;28;20030;-70
2022/03/29 04:17:32;;;;;;;5.30;3.40;;;21.70;68.00;;;;;;5003358;28;20088;-70
2022/03/29 04:20:01;;;;;;;9.38;2.22;;;21.70;67.80;;;;;;5004007;28;20033;-71
2022/03/29 04:22:28;;;;;;;4.00;1.25;;;21.70;67.70;;;;;;5003506;28;20034;-70
2022/03/29 04:24:55;;;;;;;4.72;1.00;;;21.70;67.90;;;;;;5001251;28;20022;-70
2022/03/29 04:27:21;;;;;;;13.32;2.30;;;21.70;68.10;;;;;;5002573;28;20022;-70
2022/03/29 04:29:47;;;;;;;41.75;14.60;;;21.70;68.10;;;;;;5003863;28;20120;-74
2022/03/29 04:32:14;;;;;;;101.25;40.78;;;21.70;68.00;;;;;;5002904;28;20372;-72
2022/03/29 04:34:40;;;;;;;75.95;31.00;;;21.70;68.30;;;;;;5004968;28;20019;-70
2022/03/29 04:37:07;;;;;;;51.50;22.67;;;21.70;68.50;;;;;;5016571;28;20026;-71
2022/03/29 04:39:33;;;;;;;33.47;15.73;;;21.70;68.90;;;;;;5004331;28;20018;-70
2022/03/29 04:42:00;;;;;;;24.70;11.52;;;21.70;69.20;;;;;;5003580;28;20034;-69
2022/03/29 04:44:26;;;;;;;25.63;12.00;;;21.70;69.40;;;;;;5004794;28;20024;-71
2022/03/29 04:46:53;;;;;;;17.95;8.10;;;21.70;69.30;;;;;;4998912;28;20092;-73
2022/03/29 04:49:19;;;;;;;13.82;6.10;;;21.60;69.20;;;;;;5004067;28;20404;-72
2022/03/29 04:51:46;;;;;;;20.27;5.32;;;21.60;69.30;;;;;;5001921;28;20547;-72
2022/03/29 04:54:13;;;;;;;12.20;4.55;;;21.60;69.20;;;;;;5003928;28;20517;-72
2022/03/29 04:56:39;;;;;;;9.15;3.92;;;21.60;69.10;;;;;;5001802;28;20053;-72
2022/03/29 04:59:06;;;;;;;10.48;4.05;;;21.60;69.00;;;;;;5006727;28;20487;-72
2022/03/29 05:01:32;;;;;;;11.77;3.80;;;21.60;68.70;;;;;;5003412;28;20093;-72
2022/03/29 05:03:59;;;;;;;4.28;2.15;;;21.60;68.60;;;;;;5003247;28;20030;-72
2022/03/29 05:06:25;;;;;;;9.55;3.10;;;21.60;68.50;;;;;;5004911;28;20528;-72
2022/03/29 05:08:52;;;;;;;7.38;2.20;;;21.60;68.40;;;;;;5003055;28;20377;-72
2022/03/29 05:11:18;;;;;;;5.38;1.50;;;21.60;68.30;;;;;;5008351;28;20485;-72
2022/03/29 05:13:45;;;;;;;5.15;1.42;;;21.50;68.30;;;;;;5006903;28;20033;-72
2022/03/29 05:16:11;;;;;;;3.42;1.38;;;21.60;68.50;;;;;;5008837;28;20050;-71
2022/03/29 05:18:38;;;;;;;4.15;2.17;;;21.60;68.50;;;;;;5005586;28;20026;-72
2022/03/29 05:21:05;;;;;;;3.35;1.55;;;21.60;68.30;;;;;;5004097;28;20085;-71
2022/03/29 05:23:31;;;;;;;9.82;2.08;;;21.60;68.50;;;;;;5006643;28;20076;-71
2022/03/29 05:25:58;;;;;;;14.10;1.83;;;21.50;68.50;;;;;;5006367;28;20113;-71
2022/03/29 05:28:24;;;;;;;2.60;0.85;;;21.60;68.60;;;;;;5007352;28;20065;-72
2022/03/29 05:30:51;;;;;;;5.30;1.60;;;21.60;68.50;;;;;;5006521;28;20017;-72
2022/03/29 05:33:18;;;;;;;4.47;1.00;;;21.60;68.50;;;;;;5007363;28;20049;-71
2022/03/29 05:35:45;;;;;;;4.53;1.33;;;21.60;68.60;;;;;;5007223;28;20450;-71
2022/03/29 05:38:12;;;;;;;3.05;0.77;;;21.60;68.60;;;;;;5008559;28;20448;-71
2022/03/29 05:40:39;;;;;;;2.10;1.25;;;21.60;68.60;;;;;;5005956;28;20061;-71
2022/03/29 05:43:14;;;;;;;0.52;0.50;;;21.60;68.50;;;;;;5006130;28;20022;-71
2022/03/29 05:45:40;;;;;;;;;;;21.60;68.60;;;;;;5006325;28;20421;-71
2022/03/29 05:50:52;;;;;;;5.35;0.95;;;21.60;68.70;;;;;;5007341;28;20060;-71
2022/03/29 05:53:19;;;;;;;3.63;0.85;;;21.60;68.80;;;;;;5008050;28;20029;-72
2022/03/29 05:55:48;;;;;;;2.45;0.70;;;21.60;68.80;;;;;;5009380;28;20121;-71
2022/03/29 05:58:16;;;;;;;5.13;0.90;;;21.60;68.90;;;;;;5005830;28;20369;-71
2022/03/29 06:00:43;;;;;;;3.45;0.70;;;21.60;69.00;;;;;;5004442;28;20034;-72
2022/03/29 06:03:10;;;;;;;2.45;0.93;;;21.60;69.00;;;;;;5007126;28;20037;-71
2022/03/29 06:05:41;;;;;;;4.43;0.93;;;21.60;69.00;;;;;;5004982;28;20139;-71
2022/03/29 06:08:08;;;;;;;3.47;0.73;;;21.60;69.00;;;;;;5007002;28;20117;-71
2022/03/29 06:10:34;;;;;;;9.93;1.05;;;21.60;69.00;;;;;;5006055;28;20033;-72
2022/03/29 06:13:01;;;;;;;8.13;0.93;;;21.60;69.10;;;;;;5007736;28;20018;-71
2022/03/29 06:15:27;;;;;;;1.95;0.80;;;21.60;69.10;;;;;;5007559;28;20017;-70
2022/03/29 06:17:54;;;;;;;3.53;1.25;;;21.60;69.40;;;;;;5003714;28;20029;-69
2022/03/29 06:20:20;;;;;;;4.65;0.82;;;21.60;69.90;;;;;;5006794;28;20030;-69
2022/03/29 06:22:48;;;;;;;3.50;0.68;;;21.60;70.60;;;;;;5005248;28;20034;-69
2022/03/29 06:25:14;;;;;;;2.42;0.70;;;21.60;71.40;;;;;;5006704;28;20125;-69
2022/03/29 06:27:42;;;;;;;1.88;1.02;;;21.60;71.90;;;;;;5001804;28;20050;-70
2022/03/29 06:30:09;;;;;;;5.38;0.50;;;21.50;72.40;;;;;;5007031;28;20025;-69
2022/03/29 06:32:49;;;;;;;5.10;1.05;;;21.50;72.80;;;;;;5006703;28;20029;-69
2022/03/29 06:35:21;;;;;;;7.25;1.05;;;21.50;73.40;;;;;;5005391;28;20018;-70
2022/03/29 06:37:50;;;;;;;3.88;0.70;;;21.50;75.00;;;;;;5005400;28;20037;-71
2022/03/29 06:40:16;;;;;;;1.52;0.70;;;21.50;76.00;;;;;;5006740;28;20034;-69
2022/03/29 06:42:43;;;;;;;5.00;0.70;;;21.50;76.40;;;;;;5006321;28;20018;-70
2022/03/29 06:45:10;;;;;;;6.85;0.95;;;21.50;76.70;;;;;;5004864;28;20026;-70
2022/03/29 06:47:37;;;;;;;17.35;1.63;;;21.50;77.00;;;;;;5023742;28;20366;-70
2022/03/29 06:50:04;;;;;;;8.60;1.63;;;21.50;77.20;;;;;;5005555;28;20499;-70
2022/03/29 06:52:36;;;;;;;2.67;1.23;;;21.50;78.20;;;;;;5003847;28;20049;-70
2022/03/29 06:55:03;;;;;;;4.88;1.40;;;21.50;78.80;;;;;;5006853;28;20469;-70
2022/03/29 06:57:30;;;;;;;4.57;0.80;;;21.50;79.20;;;;;;5004598;28;20137;-70
2022/03/29 06:59:56;;;;;;;5.28;0.80;;;21.50;79.60;;;;;;5004467;28;20076;-70
2022/03/29 07:02:23;;;;;;;2.55;0.90;;;21.60;79.80;;;;;;5006863;28;20033;-70
2022/03/29 07:04:49;;;;;;;2.88;1.10;;;21.60;80.00;;;;;;5004627;28;20089;-70
2022/03/29 07:07:16;;;;;;;9.32;1.13;;;21.60;80.10;;;;;;5005274;28;20053;-70
2022/03/29 07:12:34;;;;;;;1.95;1.10;;;21.50;79.80;;;;;;4980307;28;20052;-70
2022/03/29 07:15:01;;;;;;;4.72;0.95;;;21.60;79.70;;;;;;5003866;28;20046;-70
2022/03/29 07:17:27;;;;;;;3.03;1.02;;;21.60;79.70;;;;;;5004040;28;20029;-70
2022/03/29 07:19:54;;;;;;;3.95;1.00;;;21.60;79.60;;;;;;5004895;28;20497;-70
2022/03/29 07:22:23;;;;;;;4.50;2.25;;;21.50;79.50;;;;;;5004606;28;20030;-71
2022/03/29 07:24:50;;;;;;;3.88;2.15;;;21.50;79.50;;;;;;5005800;28;20075;-71
2022/03/29 07:27:17;;;;;;;9.68;1.90;;;21.50;79.50;;;;;;5004560;28;20030;-70
2022/03/29 07:29:43;;;;;;;16.15;3.20;;;21.50;79.70;;;;;;5006566;28;20021;-71
2022/03/29 07:32:10;;;;;;;9.00;3.33;;;21.50;79.90;;;;;;5002605;28;20018;-71
2022/03/29 07:34:37;;;;;;;14.25;3.15;;;21.50;79.70;;;;;;5004274;28;20061;-70
2022/03/29 07:37:05;;;;;;;9.07;2.33;;;21.50;79.50;;;;;;5003129;28;20052;-70
2022/03/29 07:39:31;;;;;;;11.43;3.03;;;21.50;79.20;;;;;;5006709;28;20110;-70
2022/03/29 07:41:58;;;;;;;9.35;2.42;;;21.50;78.90;;;;;;5002863;28;20382;-71
2022/03/29 07:44:25;;;;;;;8.88;2.40;;;21.50;78.40;;;;;;5004673;28;20108;-70
2022/03/29 07:46:51;;;;;;;8.07;2.15;;;21.50;77.90;;;;;;5005058;28;20485;-70
2022/03/29 07:49:18;;;;;;;6.68;1.98;;;21.40;77.10;;;;;;5003344;28;20080;-71
2022/03/29 07:51:44;;;;;;;5.93;2.40;;;21.40;76.70;;;;;;5005304;28;20061;-71
2022/03/29 07:54:11;;;;;;;4.97;1.92;;;21.40;76.40;;;;;;5001961;28;20116;-71
2022/03/29 07:56:37;;;;;;;7.65;1.63;;;21.30;76.30;;;;;;5005765;28;20042;-71
2022/03/29 07:59:04;;;;;;;4.40;1.80;;;21.30;76.20;;;;;;5002168;28;20022;-70
2022/03/29 08:01:30;;;;;;;7.05;1.50;;;21.30;76.20;;;;;;5005566;28;20068;-70
2022/03/29 08:03:57;;;;;;;6.53;1.27;;;21.30;76.30;;;;;;5002646;28;20028;-71
2022/03/29 08:06:23;;;;;;;5.38;1.45;;;21.30;76.40;;;;;;5005465;28;20049;-70
2022/03/29 08:08:50;;;;;;;4.60;1.65;;;21.30;76.50;;;;;;5003892;28;20161;-70
2022/03/29 08:11:16;;;;;;;2.15;1.13;;;21.20;76.40;;;;;;5003278;28;20018;-69
2022/03/29 08:13:43;;;;;;;6.47;1.27;;;21.20;76.40;;;;;;5006579;28;20480;-70
2022/03/29 08:16:09;;;;;;;2.70;1.00;;;21.20;76.50;;;;;;5003122;28;20382;-70
2022/03/29 08:18:38;;;;;;;2.95;1.30;;;21.20;76.60;;;;;;5006341;28;20034;-70
2022/03/29 08:21:47;;;;;;;5.45;1.90;;;21.20;76.80;;;;;;5005650;28;20484;-70
2022/03/29 08:23:51;;;;;;;5.22;2.40;;;21.20;77.00;;;;;;5004682;28;20495;-70
2022/03/29 08:26:17;;;;;;;7.28;1.60;;;21.20;77.40;;;;;;5005952;28;20029;-70
2022/03/29 08:28:44;;;;;;;7.57;2.17;;;21.20;77.70;;;;;;5004364;28;20021;-69
2022/03/29 08:31:11;;;;;;;5.50;2.25;;;21.20;78.00;;;;;;5004373;28;20022;-70
2022/03/29 08:33:37;;;;;;;5.18;1.90;;;21.20;78.60;;;;;;5004512;28;20165;-70
2022/03/29 08:36:44;;;;;;;5.72;2.55;;;21.20;79.10;;;;;;5004602;28;20119;-70
2022/03/29 08:39:50;;;;;;;3.13;1.70;;;21.30;79.90;;;;;;5003744;28;20485;-70
2022/03/29 08:42:58;;;;;;;4.88;2.28;;;21.30;80.30;;;;;;5003001;28;20045;-71
2022/03/29 08:46:07;;;;;;;5.43;1.95;;;21.30;80.60;;;;;;5005456;28;20030;-70
2022/03/29 08:49:13;;;;;;;2.35;1.55;;;21.30;80.70;;;;;;5008997;28;20022;-70
2022/03/29 08:51:40;;;;;;;4.85;1.60;;;21.30;80.80;;;;;;5007933;28;20386;-70
2022/03/29 08:54:07;;;;;;;3.85;1.50;;;21.30;80.90;;;;;;5005701;28;20029;-70
2022/03/29 08:56:34;;;;;;;5.35;1.85;;;21.30;81.00;;;;;;5009844;28;20022;-69
2022/03/29 08:59:01;;;;;;;4.53;1.75;;;21.30;81.10;;;;;;5002882;28;20034;-70
2022/03/29 09:01:27;;;;;;;3.17;1.40;;;21.30;81.10;;;;;;5009136;28;20837;-70
2022/03/29 09:04:24;;;;;;;4.50;1.88;;;21.30;81.10;;;;;;5006741;28;20711;-69
2022/03/29 09:06:50;;;;;;;3.20;1.60;;;21.30;81.20;;;;;;4998930;28;20088;-70
2022/03/29 09:09:28;;;;;;;6.07;2.05;;;21.30;81.20;;;;;;5008216;28;20018;-70
2022/03/29 09:11:56;;;;;;;5.22;1.60;;;21.30;81.30;;;;;;5005471;28;20034;-70
2022/03/29 09:14:25;;;;;;;5.68;2.10;;;21.30;81.30;;;;;;5009151;28;20030;-69
2022/03/29 09:16:54;;;;;;;7.18;2.20;;;21.30;81.40;;;;;;5004046;28;20385;-70
2022/03/29 09:19:24;;;;;;;5.18;1.70;;;21.30;81.40;;;;;;5007736;28;20037;-70
2022/03/29 09:21:53;;;;;;;5.53;2.05;;;21.20;81.40;;;;;;5003057;28;20038;-69
2022/03/29 09:24:20;;;;;;;4.07;1.70;;;21.30;81.60;;;;;;5007153;28;20351;-70
2022/03/29 09:26:52;;;;;;;4.78;1.27;;;21.20;81.60;;;;;;5006720;28;20026;-69
2022/03/29 09:29:21;;;;;;;4.40;1.25;;;21.20;81.50;;;;;;5009041;28;20064;-70
2022/03/29 09:32:12;;;;;;;6.82;1.17;;;21.20;81.50;;;;;;5007479;28;20026;-70
2022/03/29 09:34:38;;;;;;;3.88;0.93;;;21.20;81.60;;;;;;5007739;28;20026;-70
2022/03/29 09:37:06;;;;;;;3.50;1.23;;;21.20;81.60;;;;;;5005783;28;20029;-70
2022/03/29 09:39:41;;;;;;;4.30;1.67;;;21.20;81.70;;;;;;5008035;28;20025;-70
2022/03/29 09:42:12;;;;;;;5.38;1.92;;;21.20;81.70;;;;;;5007918;28;20127;-69
2022/03/29 09:44:47;;;;;;;3.58;1.35;;;21.20;81.80;;;;;;5007596;28;20407;-69
2022/03/29 09:47:20;;;;;;;4.70;1.67;;;21.20;82.00;;;;;;5007320;28;20381;-69
2022/03/29 09:49:57;;;;;;;5.18;1.48;;;21.20;82.20;;;;;;5004391;28;20081;-70
2022/03/29 09:52:32;;;;;;;4.18;1.30;;;21.20;82.60;;;;;;5008794;28;20080;-70
2022/03/29 09:55:20;;;;;;;4.35;1.33;;;21.30;83.00;;;;;;5006029;28;20045;-69
2022/03/29 09:57:49;;;;;;;4.85;1.05;;;21.30;83.30;;;;;;5007701;28;20057;-69
2022/03/29 10:00:20;;;;;;;2.22;0.90;;;21.30;83.60;;;;;;5007855;28;20014;-69
2022/03/29 10:02:47;;;;;;;1.30;1.10;;;21.30;83.70;;;;;;5003520;28;20034;-69
2022/03/29 10:05:18;;;;;;;1.58;0.82;;;21.30;83.60;;;;;;5009329;28;20113;-69
2022/03/29 10:07:46;;;;;;;2.83;0.85;;;21.20;83.20;;;;;;5004546;28;20022;-70
2022/03/29 10:10:13;;;;;;;1.98;0.80;;;21.20;82.80;;;;;;5006715;28;20018;-70
2022/03/29 10:12:40;;;;;;;2.08;0.60;;;21.20;83.20;;;;;;5005644;28;20022;-69
2022/03/29 10:15:08;;;;;;;2.20;0.70;;;21.20;82.30;;;;;;5006497;28;20033;-69
2022/03/29 10:17:35;;;;;;;2.47;0.70;;;21.20;82.20;;;;;;5006967;28;20025;-69
2022/03/29 10:20:02;;;;;;;2.33;1.30;;;21.20;82.10;;;;;;5007573;28;20037;-69
2022/03/29 10:22:28;;;;;;;1.98;0.93;;;21.30;82.50;;;;;;5008182;28;20022;-70
2022/03/29 10:24:55;;;;;;;1.40;0.77;;;21.30;82.00;;;;;;5007399;28;20480;-70
2022/03/29 10:27:22;;;;;;;4.35;1.67;;;21.30;81.90;;;;;;5005739;28;20492;-70
2022/03/29 10:29:49;;;;;;;1.38;0.85;;;21.30;81.80;;;;;;5004155;28;20113;-70
2022/03/29 10:32:29;;;;;;;1.83;0.50;;;21.30;81.60;;;;;;5007297;28;20161;-70
2022/03/29 10:35:10;;;;;;;1.52;0.60;;;21.30;81.50;;;;;;5005548;28;20018;-69
2022/03/29 10:37:56;;;;;;;3.40;1.10;;;21.40;81.40;;;;;;5006528;28;20037;-69
2022/03/29 10:40:39;;;;;;;3.40;0.90;;;21.30;81.30;;;;;;5005487;28;20044;-70
2022/03/29 10:43:50;;;;;;;6.53;1.50;;;21.30;81.90;;;;;;4999743;28;20482;-68
2022/03/29 10:46:25;;;;;;;11.35;2.30;;;21.40;81.90;;;;;;4995181;28;20421;-69
2022/03/29 10:49:28;;;;;;;16.10;3.30;;;21.40;82.70;;;;;;5000380;28;20033;-69
2022/03/29 10:52:19;;;;;;;4.50;1.83;;;21.50;83.60;;;;;;5003961;28;20084;-70
2022/03/29 10:54:45;;;;;;;4.70;2.40;;;21.40;84.20;;;;;;5006038;28;20141;-68
2022/03/29 10:57:26;;;;;;;3.97;1.23;;;21.50;84.40;;;;;;5006409;28;20432;-68
2022/03/29 11:00:12;;;;;;;4.82;3.25;;;21.50;84.30;;;;;;4998420;28;20040;-69
2022/03/29 11:03:08;;;;;;;14.23;8.13;;;21.50;84.20;;;;;;5003361;28;21040;-69
2022/03/29 11:05:54;;;;;;;12.27;6.25;;;21.50;84.00;;;;;;5007349;28;20053;-68
2022/03/29 11:08:24;;;;;;;9.10;4.15;;;21.50;84.00;;;;;;5001272;28;20058;-70
2022/03/29 11:10:51;;;;;;;8.80;3.70;;;21.50;83.90;;;;;;5002952;28;20025;-70
2022/03/29 11:13:28;;;;;;;7.18;2.45;;;21.50;83.70;;;;;;5003533;28;20187;-71
2022/03/29 11:16:00;;;;;;;10.02;2.80;;;21.50;83.40;;;;;;5003415;28;20169;-70
2022/03/29 11:18:33;;;;;;;5.93;2.08;;;21.50;83.20;;;;;;5006780;28;20387;-70
2022/03/29 11:21:03;;;;;;;10.10;3.08;;;21.50;82.90;;;;;;5003415;28;20037;-71
2022/03/29 11:23:41;;;;;;;4.95;2.40;;;21.50;82.60;;;;;;5004152;28;20026;-71
2022/03/29 11:26:14;;;;;;;11.70;2.40;;;21.60;82.30;;;;;;5002250;28;20033;-70
2022/03/29 11:28:49;;;;;;;8.82;2.00;;;21.60;82.10;;;;;;5005629;28;20018;-70
2022/03/29 11:31:16;;;;;;;7.45;2.40;;;21.60;81.90;;;;;;5000970;28;20029;-69
2022/03/29 11:33:45;;;;;;;14.68;7.75;;;21.60;81.70;;;;;;5001757;28;20061;-73
2022/03/29 11:36:12;;;;;;;16.40;7.78;;;21.60;81.40;;;;;;5006097;28;20032;-70
2022/03/29 11:38:38;;;;;;;11.18;5.85;;;21.60;81.10;;;;;;5001594;28;20113;-71
2022/03/29 11:41:05;;;;;;;10.80;4.10;;;21.60;80.90;;;;;;5004224;28;20083;-71
2022/03/29 11:43:32;;;;;;;10.52;3.00;;;21.60;80.90;;;;;;5000994;28;20072;-72
2022/03/29 11:45:59;;;;;;;18.33;3.75;;;21.60;81.50;;;;;;5002455;28;20084;-74
2022/03/29 11:48:27;;;;;;;15.63;2.35;;;21.60;81.10;;;;;;4998060;28;20029;-72
2022/03/29 11:50:56;;;;;;;10.25;3.90;;;21.60;81.80;;;;;;5003918;28;20467;-71
2022/03/29 11:53:35;;;;;;;12.45;2.03;;;21.60;82.20;;;;;;5004639;28;20033;-71
2022/03/29 11:56:14;;;;;;;6.90;1.70;;;21.60;82.40;;;;;;5002462;28;20057;-71
2022/03/29 11:58:55;;;;;;;8.18;2.30;;;21.60;82.40;;;;;;5002665;28;20034;-71
2022/03/29 12:01:34;;;;;;;9.48;2.83;;;21.70;82.40;;;;;;5003230;28;20038;-71
2022/03/29 12:04:04;;;;;;;17.10;3.92;;;21.70;82.00;;;;;;5002664;28;20024;-72
2022/03/29 12:06:33;;;;;;;22.73;4.05;;;21.70;81.80;;;;;;5003142;28;20045;-71
2022/03/29 12:09:01;;;;;;;11.30;3.33;;;21.70;81.80;;;;;;4998721;28;20428;-71
2022/03/29 12:11:29;;;;;;;12.02;3.08;;;21.70;81.80;;;;;;5005202;28;20377;-70
2022/03/29 12:14:05;;;;;;;14.77;3.25;;;21.70;82.00;;;;;;5002273;28;20080;-71
2022/03/29 12:16:34;;;;;;;9.38;2.97;;;21.70;82.10;;;;;;5002554;28;20056;-71
2022/03/29 12:19:01;;;;;;;8.23;2.08;;;21.70;82.40;;;;;;5007299;28;20045;-71
2022/03/29 12:21:29;;;;;;;8.35;2.90;;;21.80;82.60;;;;;;5008119;28;20156;-71
2022/03/29 12:24:10;;;;;;;7.45;3.00;;;21.80;82.50;;;;;;5005662;28;20393;-68
2022/03/29 12:27:04;;;;;;;7.35;2.63;;;21.80;82.50;;;;;;5007947;28;20026;-70
2022/03/29 12:29:33;;;;;;;13.85;3.75;;;21.80;82.40;;;;;;5007932;28;20037;-70
2022/03/29 12:32:02;;;;;;;8.90;2.08;;;21.80;82.10;;;;;;5004325;28;20084;-71
2022/03/29 12:34:31;;;;;;;13.38;2.88;;;21.90;81.50;;;;;;5006140;28;20485;-71
2022/03/29 12:36:59;;;;;;;11.63;2.47;;;21.90;80.90;;;;;;5007059;28;20076;-71
2022/03/29 12:39:40;;;;;;;10.55;2.13;;;21.90;80.20;;;;;;5006592;28;20033;-71
2022/03/29 12:42:14;;;;;;;10.15;2.38;;;21.90;79.50;;;;;;5008026;28;20030;-70
2022/03/29 12:44:55;;;;;;;13.47;4.03;;;22.00;79.20;;;;;;5003811;28;20574;-73
2022/03/29 12:47:24;;;;;;;10.13;2.95;;;22.00;79.00;;;;;;5009390;28;20030;-70
2022/03/29 12:49:51;;;;;;;8.63;3.22;;;22.00;79.00;;;;;;5009307;28;20025;-70
2022/03/29 12:52:19;;;;;;;7.65;2.33;;;22.10;79.00;;;;;;5009508;28;20030;-71
2022/03/29 12:54:55;;;;;;;9.27;2.15;;;22.10;79.00;;;;;;5007513;28;20053;-72
2022/03/29 12:57:35;;;;;;;8.80;2.05;;;22.10;79.00;;;;;;5008525;28;20033;-71
2022/03/29 13:00:10;;;;;;;8.65;2.17;;;22.10;78.90;;;;;;5007776;28;20014;-72
2022/03/29 13:02:41;;;;;;;14.32;3.47;;;22.10;78.80;;;;;;5006343;28;20404;-70
2022/03/29 13:05:08;;;;;;;6.82;3.05;;;22.20;78.90;;;;;;5008403;28;20021;-71
2022/03/29 13:07:56;;;;;;;10.77;1.83;;;22.20;78.80;;;;;;5008818;28;20026;-76
2022/03/29 13:10:46;;;;;;;6.68;2.15;;;22.20;78.70;;;;;;5005698;28;20075;-71